sensor_id;sensor_type;location;lat;lon;timestamp;pressure;altitude;pressure_sealevel;temperature;humidity
24746;BME280;12845;52.042;6.838;2023-03-18T00:01:00;-18369.94;;;12.71;100.00
24746;BME280;12845;52.042;6.838;2023-03-18T00:03:32;-18370.34;;;12.72;100.00
24746;BME280;12845;52.042;6.838;2023-03-18T00:06:15;-18369.81;;;12.70;100.00
24746;BME280;12845;52.042;6.838;2023-03-18T00:08:43;-18369.13;;;12.68;100.00
24746;BME280;12845;52.042;6.838;2023-03-18T00:11:11;-18368.72;;;12.66;100.00
24746;BME280;12845;52.042;6.838;2023-03-18T00:13:37;-18368.97;;;12.67;100.00
24746;BME280;12845;52.042;6.838;2023-03-18T00:16:04;-18368.56;;;12.65;100.00
24746;BME280;12845;52.042;6.838;2023-03-18T00:18:31;-18368.03;;;12.63;100.00
24746;BME280;12845;52.042;6.838;2023-03-18T00:20:57;-18368.44;;;12.65;100.00
24746;BME280;12845;52.042;6.838;2023-03-18T00:23:24;-18367.88;;;12.63;100.00
24746;BME280;12845;52.042;6.838;2023-03-18T00:25:52;-18365.97;;;12.56;100.00
24746;BME280;12845;52.042;6.838;2023-03-18T00:28:18;-18365.97;;;12.56;100.00
24746;BME280;12845;52.042;6.838;2023-03-18T00:30:44;-18365.28;;;12.53;100.00
24746;BME280;12845;52.042;6.838;2023-03-18T00:33:11;-18365.13;;;12.53;100.00
24746;BME280;12845;52.042;6.838;2023-03-18T00:35:36;-18364.03;;;12.49;100.00
24746;BME280;12845;52.042;6.838;2023-03-18T00:38:03;-18364.88;;;12.52;100.00
24746;BME280;12845;52.042;6.838;2023-03-18T00:40:32;-18364.03;;;12.49;100.00
24746;BME280;12845;52.042;6.838;2023-03-18T00:43:19;-18362.53;;;12.43;100.00
24746;BME280;12845;52.042;6.838;2023-03-18T00:45:47;-18362.81;;;12.44;100.00
24746;BME280;12845;52.042;6.838;2023-03-18T00:48:13;-18361.44;;;12.39;100.00
24746;BME280;12845;52.042;6.838;2023-03-18T00:50:38;-18360.47;;;12.35;100.00
24746;BME280;12845;52.042;6.838;2023-03-18T00:53:04;-18360.47;;;12.35;100.00
24746;BME280;12845;52.042;6.838;2023-03-18T00:55:30;-18360.34;;;12.35;100.00
24746;BME280;12845;52.042;6.838;2023-03-18T00:57:55;-18359.66;;;12.32;100.00
24746;BME280;12845;52.042;6.838;2023-03-18T01:00:21;-18357.03;;;12.23;100.00
24746;BME280;12845;52.042;6.838;2023-03-18T01:02:46;-18356.63;;;12.21;100.00
24746;BME280;12845;52.042;6.838;2023-03-18T01:05:14;-18356.09;;;12.19;100.00
24746;BME280;12845;52.042;6.838;2023-03-18T01:07:40;-18355.00;;;12.15;100.00
24746;BME280;12845;52.042;6.838;2023-03-18T01:10:06;-18354.03;;;12.11;100.00
24746;BME280;12845;52.042;6.838;2023-03-18T01:12:32;-18353.34;;;12.09;100.00
24746;BME280;12845;52.042;6.838;2023-03-18T01:14:58;-18352.53;;;12.06;100.00
24746;BME280;12845;52.042;6.838;2023-03-18T01:17:24;-18350.19;;;11.97;100.00
24746;BME280;12845;52.042;6.838;2023-03-18T01:19:50;-18348.00;;;11.89;100.00
24746;BME280;12845;52.042;6.838;2023-03-18T01:22:15;-18346.19;;;11.82;100.00
24746;BME280;12845;52.042;6.838;2023-03-18T01:24:41;-18346.75;;;11.84;100.00
24746;BME280;12845;52.042;6.838;2023-03-18T01:27:06;-18348.00;;;11.89;100.00
24746;BME280;12845;52.042;6.838;2023-03-18T01:29:33;-18346.88;;;11.85;100.00
24746;BME280;12845;52.042;6.838;2023-03-18T01:31:59;-18344.97;;;11.78;100.00
24746;BME280;12845;52.042;6.838;2023-03-18T01:34:25;-18344.56;;;11.76;100.00
24746;BME280;12845;52.042;6.838;2023-03-18T01:36:51;-18342.34;;;11.68;100.00
24746;BME280;12845;52.042;6.838;2023-03-18T01:39:18;-18342.09;;;11.67;100.00
24746;BME280;12845;52.042;6.838;2023-03-18T01:41:44;-18342.34;;;11.68;100.00
24746;BME280;12845;52.042;6.838;2023-03-18T01:44:13;-18341.13;;;11.63;100.00
24746;BME280;12845;52.042;6.838;2023-03-18T01:46:41;-18340.72;;;11.62;100.00
24746;BME280;12845;52.042;6.838;2023-03-18T01:52:01;-18335.63;;;11.43;100.00
24746;BME280;12845;52.042;6.838;2023-03-18T01:54:30;-18334.94;;;11.40;100.00
24746;BME280;12845;52.042;6.838;2023-03-18T01:56:57;-18334.25;;;11.38;100.00
24746;BME280;12845;52.042;6.838;2023-03-18T01:59:26;-18334.13;;;11.37;100.00
24746;BME280;12845;52.042;6.838;2023-03-18T02:01:59;-18333.84;;;11.36;100.00
24746;BME280;12845;52.042;6.838;2023-03-18T02:04:28;-18332.34;;;11.30;100.00
24746;BME280;12845;52.042;6.838;2023-03-18T02:06:56;-18330.41;;;11.23;100.00
24746;BME280;12845;52.042;6.838;2023-03-18T02:09:21;-18327.13;;;11.11;100.00
24746;BME280;12845;52.042;6.838;2023-03-18T02:11:47;-18326.72;;;11.10;100.00
24746;BME280;12845;52.042;6.838;2023-03-18T02:14:14;-18326.28;;;11.08;100.00
24746;BME280;12845;52.042;6.838;2023-03-18T02:16:47;-18326.16;;;11.07;100.00
24746;BME280;12845;52.042;6.838;2023-03-18T02:19:25;-18325.19;;;11.04;100.00
24746;BME280;12845;52.042;6.838;2023-03-18T02:22:16;-18322.88;;;10.95;100.00
24746;BME280;12845;52.042;6.838;2023-03-18T02:27:24;-18321.22;;;10.89;100.00
24746;BME280;12845;52.042;6.838;2023-03-18T02:29:53;-18322.03;;;10.92;100.00
24746;BME280;12845;52.042;6.838;2023-03-18T02:32:25;-18321.22;;;10.89;100.00
24746;BME280;12845;52.042;6.838;2023-03-18T02:34:52;-18321.91;;;10.92;100.00
24746;BME280;12845;52.042;6.838;2023-03-18T02:37:18;-18321.34;;;10.90;100.00
24746;BME280;12845;52.042;6.838;2023-03-18T02:39:43;-18321.22;;;10.89;100.00
24746;BME280;12845;52.042;6.838;2023-03-18T02:42:12;-18321.22;;;10.89;100.00
24746;BME280;12845;52.042;6.838;2023-03-18T02:44:41;-18321.22;;;10.89;100.00
24746;BME280;12845;52.042;6.838;2023-03-18T02:47:13;-18320.94;;;10.88;100.00
24746;BME280;12845;52.042;6.838;2023-03-18T02:49:41;-18320.66;;;10.87;100.00
24746;BME280;12845;52.042;6.838;2023-03-18T02:52:07;-18319.56;;;10.83;100.00
24746;BME280;12845;52.042;6.838;2023-03-18T02:54:33;-18322.03;;;10.92;100.00
24746;BME280;12845;52.042;6.838;2023-03-18T02:56:59;-18319.16;;;10.81;100.00
24746;BME280;12845;52.042;6.838;2023-03-18T02:59:24;-18317.63;;;10.76;100.00
24746;BME280;12845;52.042;6.838;2023-03-18T03:01:52;-18316.41;;;10.71;100.00
24746;BME280;12845;52.042;6.838;2023-03-18T03:04:19;-18316.13;;;10.70;100.00
24746;BME280;12845;52.042;6.838;2023-03-18T03:06:45;-18316.69;;;10.72;100.00
24746;BME280;12845;52.042;6.838;2023-03-18T03:09:13;-18316.97;;;10.73;100.00
24746;BME280;12845;52.042;6.838;2023-03-18T03:11:40;-18314.47;;;10.64;100.00
24746;BME280;12845;52.042;6.838;2023-03-18T03:14:07;-18316.97;;;10.73;100.00
24746;BME280;12845;52.042;6.838;2023-03-18T03:16:34;-18316.00;;;10.70;100.00
24746;BME280;12845;52.042;6.838;2023-03-18T03:19:00;-18315.84;;;10.69;100.00
24746;BME280;12845;52.042;6.838;2023-03-18T03:21:26;-18315.44;;;10.68;100.00
24746;BME280;12845;52.042;6.838;2023-03-18T03:23:51;-18314.34;;;10.64;100.00
24746;BME280;12845;52.042;6.838;2023-03-18T03:26:19;-18313.25;;;10.59;100.00
24746;BME280;12845;52.042;6.838;2023-03-18T03:28:44;-18312.56;;;10.57;100.00
24746;BME280;12845;52.042;6.838;2023-03-18T03:31:10;-18313.66;;;10.61;100.00
24746;BME280;12845;52.042;6.838;2023-03-18T03:33:39;-18312.84;;;10.58;100.00
24746;BME280;12845;52.042;6.838;2023-03-18T03:36:13;-18313.25;;;10.59;100.00
24746;BME280;12845;52.042;6.838;2023-03-18T03:38:39;-18312.56;;;10.57;100.00
24746;BME280;12845;52.042;6.838;2023-03-18T03:41:06;-18313.13;;;10.59;100.00
24746;BME280;12845;52.042;6.838;2023-03-18T03:43:35;-18313.38;;;10.60;100.00
24746;BME280;12845;52.042;6.838;2023-03-18T03:46:00;-18312.44;;;10.56;100.00
24746;BME280;12845;52.042;6.838;2023-03-18T03:48:26;-18311.59;;;10.53;100.00
24746;BME280;12845;52.042;6.838;2023-03-18T03:50:52;-18313.25;;;10.59;100.00
24746;BME280;12845;52.042;6.838;2023-03-18T03:53:17;-18312.44;;;10.56;100.00
24746;BME280;12845;52.042;6.838;2023-03-18T03:55:43;-18312.84;;;10.58;100.00
24746;BME280;12845;52.042;6.838;2023-03-18T03:58:08;-18311.19;;;10.52;100.00
24746;BME280;12845;52.042;6.838;2023-03-18T04:00:34;-18311.19;;;10.52;100.00
24746;BME280;12845;52.042;6.838;2023-03-18T04:03:00;-18311.31;;;10.52;100.00
24746;BME280;12845;52.042;6.838;2023-03-18T04:05:26;-18313.38;;;10.60;100.00
24746;BME280;12845;52.042;6.838;2023-03-18T04:07:52;-18313.78;;;10.61;100.00
24746;BME280;12845;52.042;6.838;2023-03-18T04:10:18;-18314.22;;;10.63;100.00
24746;BME280;12845;52.042;6.838;2023-03-18T04:12:45;-18314.22;;;10.63;100.00
24746;BME280;12845;52.042;6.838;2023-03-18T04:15:12;-18312.69;;;10.57;100.00
24746;BME280;12845;52.042;6.838;2023-03-18T04:17:38;-18312.44;;;10.56;100.00
24746;BME280;12845;52.042;6.838;2023-03-18T04:20:04;-18314.06;;;10.63;100.00
24746;BME280;12845;52.042;6.838;2023-03-18T04:22:30;-18313.66;;;10.61;100.00
24746;BME280;12845;52.042;6.838;2023-03-18T04:24:56;-18312.84;;;10.58;100.00
24746;BME280;12845;52.042;6.838;2023-03-18T04:27:22;-18311.31;;;10.52;100.00
24746;BME280;12845;52.042;6.838;2023-03-18T04:29:48;-18311.59;;;10.53;100.00
24746;BME280;12845;52.042;6.838;2023-03-18T04:32:13;-18311.88;;;10.54;100.00
24746;BME280;12845;52.042;6.838;2023-03-18T04:34:39;-18311.88;;;10.54;100.00
24746;BME280;12845;52.042;6.838;2023-03-18T04:37:05;-18312.69;;;10.57;100.00
24746;BME280;12845;52.042;6.838;2023-03-18T04:39:30;-18312.56;;;10.57;100.00
24746;BME280;12845;52.042;6.838;2023-03-18T04:41:55;-18312.16;;;10.55;100.00
24746;BME280;12845;52.042;6.838;2023-03-18T04:44:22;-18313.25;;;10.59;100.00
24746;BME280;12845;52.042;6.838;2023-03-18T04:46:47;-18313.38;;;10.60;100.00
24746;BME280;12845;52.042;6.838;2023-03-18T04:49:12;-18312.16;;;10.55;100.00
24746;BME280;12845;52.042;6.838;2023-03-18T04:51:38;-18311.19;;;10.52;100.00
24746;BME280;12845;52.042;6.838;2023-03-18T04:54:03;-18309.53;;;10.46;100.00
24746;BME280;12845;52.042;6.838;2023-03-18T04:56:29;-18309.13;;;10.44;100.00
24746;BME280;12845;52.042;6.838;2023-03-18T04:58:55;-18308.84;;;10.43;100.00
24746;BME280;12845;52.042;6.838;2023-03-18T05:01:21;-18308.56;;;10.42;100.00
24746;BME280;12845;52.042;6.838;2023-03-18T05:03:46;-18307.88;;;10.39;100.00
24746;BME280;12845;52.042;6.838;2023-03-18T05:06:26;-18307.34;;;10.37;100.00
24746;BME280;12845;52.042;6.838;2023-03-18T05:08:52;-18306.94;;;10.36;100.00
24746;BME280;12845;52.042;6.838;2023-03-18T05:11:19;-18305.81;;;10.32;100.00
24746;BME280;12845;52.042;6.838;2023-03-18T05:13:45;-18306.38;;;10.34;100.00
24746;BME280;12845;52.042;6.838;2023-03-18T05:16:10;-18306.50;;;10.34;100.00
24746;BME280;12845;52.042;6.838;2023-03-18T05:18:36;-18306.50;;;10.34;100.00
24746;BME280;12845;52.042;6.838;2023-03-18T05:21:02;-18306.25;;;10.33;100.00
24746;BME280;12845;52.042;6.838;2023-03-18T05:23:29;-18306.09;;;10.33;100.00
24746;BME280;12845;52.042;6.838;2023-03-18T05:25:55;-18306.66;;;10.35;100.00
24746;BME280;12845;52.042;6.838;2023-03-18T05:28:20;-18306.09;;;10.33;100.00
24746;BME280;12845;52.042;6.838;2023-03-18T05:30:45;-18305.81;;;10.32;100.00
24746;BME280;12845;52.042;6.838;2023-03-18T05:33:11;-18305.97;;;10.32;100.00
24746;BME280;12845;52.042;6.838;2023-03-18T05:35:37;-18306.50;;;10.34;100.00
24746;BME280;12845;52.042;6.838;2023-03-18T05:38:03;-18306.38;;;10.34;100.00
24746;BME280;12845;52.042;6.838;2023-03-18T05:40:28;-18307.19;;;10.37;100.00
24746;BME280;12845;52.042;6.838;2023-03-18T05:42:54;-18306.94;;;10.36;100.00
24746;BME280;12845;52.042;6.838;2023-03-18T05:45:19;-18308.03;;;10.40;100.00
24746;BME280;12845;52.042;6.838;2023-03-18T05:47:45;-18306.38;;;10.34;100.00
24746;BME280;12845;52.042;6.838;2023-03-18T05:50:10;-18306.38;;;10.34;100.00
24746;BME280;12845;52.042;6.838;2023-03-18T05:52:37;-18306.50;;;10.34;100.00
24746;BME280;12845;52.042;6.838;2023-03-18T05:55:03;-18306.38;;;10.34;100.00
24746;BME280;12845;52.042;6.838;2023-03-18T05:57:29;-18306.50;;;10.34;100.00
24746;BME280;12845;52.042;6.838;2023-03-18T05:59:54;-18305.97;;;10.32;100.00
24746;BME280;12845;52.042;6.838;2023-03-18T06:02:19;-18305.56;;;10.31;100.00
24746;BME280;12845;52.042;6.838;2023-03-18T06:04:45;-18305.97;;;10.32;100.00
24746;BME280;12845;52.042;6.838;2023-03-18T06:07:10;-18306.09;;;10.33;100.00
24746;BME280;12845;52.042;6.838;2023-03-18T06:09:36;-18305.81;;;10.32;100.00
24746;BME280;12845;52.042;6.838;2023-03-18T06:12:02;-18307.34;;;10.37;100.00
24746;BME280;12845;52.042;6.838;2023-03-18T06:14:27;-18307.75;;;10.39;100.00
24746;BME280;12845;52.042;6.838;2023-03-18T06:16:57;-18309.13;;;10.44;100.00
24746;BME280;12845;52.042;6.838;2023-03-18T06:19:23;-18310.09;;;10.48;100.00
24746;BME280;12845;52.042;6.838;2023-03-18T06:21:50;-18310.91;;;10.51;100.00
24746;BME280;12845;52.042;6.838;2023-03-18T06:24:16;-18307.75;;;10.39;100.00
24746;BME280;12845;52.042;6.838;2023-03-18T06:26:42;-18306.09;;;10.33;100.00
24746;BME280;12845;52.042;6.838;2023-03-18T06:29:07;-18305.81;;;10.32;100.00
24746;BME280;12845;52.042;6.838;2023-03-18T06:31:33;-18304.59;;;10.27;100.00
24746;BME280;12845;52.042;6.838;2023-03-18T06:33:59;-18306.38;;;10.34;100.00
24746;BME280;12845;52.042;6.838;2023-03-18T06:36:25;-18305.28;;;10.30;100.00
24746;BME280;12845;52.042;6.838;2023-03-18T06:38:50;-18305.28;;;10.30;100.00
24746;BME280;12845;52.042;6.838;2023-03-18T06:41:16;-18305.81;;;10.32;100.00
24746;BME280;12845;52.042;6.838;2023-03-18T06:43:42;-18306.50;;;10.34;100.00
24746;BME280;12845;52.042;6.838;2023-03-18T06:46:08;-18306.94;;;10.36;100.00
24746;BME280;12845;52.042;6.838;2023-03-18T06:48:34;-18307.34;;;10.37;100.00
24746;BME280;12845;52.042;6.838;2023-03-18T06:51:04;-18308.03;;;10.40;100.00
24746;BME280;12845;52.042;6.838;2023-03-18T06:53:30;-18307.63;;;10.38;100.00
24746;BME280;12845;52.042;6.838;2023-03-18T06:55:56;-18307.88;;;10.39;100.00
24746;BME280;12845;52.042;6.838;2023-03-18T06:58:21;-18308.84;;;10.43;100.00
24746;BME280;12845;52.042;6.838;2023-03-18T07:00:46;-18309.13;;;10.44;100.00
24746;BME280;12845;52.042;6.838;2023-03-18T07:03:12;-18310.50;;;10.49;100.00
24746;BME280;12845;52.042;6.838;2023-03-18T07:05:40;-18315.16;;;10.67;100.00
24746;BME280;12845;52.042;6.838;2023-03-18T07:08:06;-18315.31;;;10.67;100.00
24746;BME280;12845;52.042;6.838;2023-03-18T07:10:32;-18316.28;;;10.71;100.00
24746;BME280;12845;52.042;6.838;2023-03-18T07:12:57;-18314.75;;;10.65;100.00
24746;BME280;12845;52.042;6.838;2023-03-18T07:15:23;-18315.84;;;10.69;100.00
24746;BME280;12845;52.042;6.838;2023-03-18T07:17:49;-18314.63;;;10.65;100.00
24746;BME280;12845;52.042;6.838;2023-03-18T07:20:16;-18315.44;;;10.68;100.00
24746;BME280;12845;52.042;6.838;2023-03-18T07:22:43;-18315.16;;;10.67;100.00
24746;BME280;12845;52.042;6.838;2023-03-18T07:25:09;-18316.81;;;10.73;100.00
24746;BME280;12845;52.042;6.838;2023-03-18T07:27:35;-18314.75;;;10.65;100.00
24746;BME280;12845;52.042;6.838;2023-03-18T07:30:01;-18315.72;;;10.69;100.00
24746;BME280;12845;52.042;6.838;2023-03-18T07:32:27;-18315.72;;;10.69;100.00
24746;BME280;12845;52.042;6.838;2023-03-18T07:34:54;-18316.28;;;10.71;100.00
24746;BME280;12845;52.042;6.838;2023-03-18T07:37:21;-18318.19;;;10.78;100.00
24746;BME280;12845;52.042;6.838;2023-03-18T07:39:47;-18320.25;;;10.86;100.00
24746;BME280;12845;52.042;6.838;2023-03-18T07:42:13;-18320.81;;;10.88;100.00
24746;BME280;12845;52.042;6.838;2023-03-18T07:44:38;-18321.50;;;10.90;100.00
24746;BME280;12845;52.042;6.838;2023-03-18T07:47:03;-18322.44;;;10.94;100.00
24746;BME280;12845;52.042;6.838;2023-03-18T07:49:30;-18323.97;;;10.99;100.00
24746;BME280;12845;52.042;6.838;2023-03-18T07:51:56;-18323.56;;;10.98;100.00
24746;BME280;12845;52.042;6.838;2023-03-18T07:54:22;-18324.50;;;11.01;100.00
24746;BME280;12845;52.042;6.838;2023-03-18T07:56:49;-18325.59;;;11.05;100.00
24746;BME280;12845;52.042;6.838;2023-03-18T07:59:15;-18325.88;;;11.06;100.00
24746;BME280;12845;52.042;6.838;2023-03-18T08:01:41;-18326.97;;;11.11;100.00
24746;BME280;12845;52.042;6.838;2023-03-18T08:04:07;-18327.53;;;11.13;100.00
24746;BME280;12845;52.042;6.838;2023-03-18T08:06:33;-18328.50;;;11.16;100.00
24746;BME280;12845;52.042;6.838;2023-03-18T08:08:59;-18329.72;;;11.21;100.00
24746;BME280;12845;52.042;6.838;2023-03-18T08:11:24;-18331.09;;;11.26;100.00
24746;BME280;12845;52.042;6.838;2023-03-18T08:13:49;-18331.25;;;11.26;100.00
24746;BME280;12845;52.042;6.838;2023-03-18T08:16:15;-18333.44;;;11.35;100.00
24746;BME280;12845;52.042;6.838;2023-03-18T08:18:40;-18334.66;;;11.39;100.00
24746;BME280;12845;52.042;6.838;2023-03-18T08:21:06;-18336.72;;;11.47;100.00
24746;BME280;12845;52.042;6.838;2023-03-18T08:23:32;-18338.25;;;11.52;100.00
24746;BME280;12845;52.042;6.838;2023-03-18T08:25:57;-18341.13;;;11.63;100.00
24746;BME280;12845;52.042;6.838;2023-03-18T08:28:23;-18342.91;;;11.70;100.00
24746;BME280;12845;52.042;6.838;2023-03-18T08:30:57;-18344.00;;;11.74;100.00
24746;BME280;12845;52.042;6.838;2023-03-18T08:33:24;-18344.28;;;11.75;100.00
24746;BME280;12845;52.042;6.838;2023-03-18T08:35:50;-18344.56;;;11.76;100.00
24746;BME280;12845;52.042;6.838;2023-03-18T08:38:16;-18346.34;;;11.83;100.00
24746;BME280;12845;52.042;6.838;2023-03-18T08:40:42;-18345.25;;;11.79;100.00
24746;BME280;12845;52.042;6.838;2023-03-18T08:43:08;-18345.66;;;11.80;100.00
24746;BME280;12845;52.042;6.838;2023-03-18T08:45:36;-18346.06;;;11.82;100.00
24746;BME280;12845;52.042;6.838;2023-03-18T08:48:03;-18347.72;;;11.88;100.00
24746;BME280;12845;52.042;6.838;2023-03-18T08:50:28;-18349.63;;;11.95;100.00
24746;BME280;12845;52.042;6.838;2023-03-18T08:52:55;-18353.19;;;12.08;100.00
24746;BME280;12845;52.042;6.838;2023-03-18T08:55:26;-18355.00;;;12.15;100.00
24746;BME280;12845;52.042;6.838;2023-03-18T08:57:52;-18356.38;;;12.20;100.00
24746;BME280;12845;52.042;6.838;2023-03-18T09:00:17;-18355.81;;;12.18;100.00
24746;BME280;12845;52.042;6.838;2023-03-18T09:02:43;-18358.56;;;12.28;100.00
24746;BME280;12845;52.042;6.838;2023-03-18T09:05:08;-18358.69;;;12.29;100.00
24746;BME280;12845;52.042;6.838;2023-03-18T09:07:34;-18362.25;;;12.42;100.00
24746;BME280;12845;52.042;6.838;2023-03-18T09:10:00;-18366.22;;;12.57;100.00
24746;BME280;12845;52.042;6.838;2023-03-18T09:12:25;-18365.69;;;12.55;100.00
24746;BME280;12845;52.042;6.838;2023-03-18T09:14:51;-18366.50;;;12.58;100.00
24746;BME280;12845;52.042;6.838;2023-03-18T09:17:16;-18366.78;;;12.59;100.00
24746;BME280;12845;52.042;6.838;2023-03-18T09:19:42;-18368.72;;;12.66;100.00
24746;BME280;12845;52.042;6.838;2023-03-18T09:22:07;-18366.09;;;12.56;100.00
24746;BME280;12845;52.042;6.838;2023-03-18T09:24:34;-18367.88;;;12.63;100.00
24746;BME280;12845;52.042;6.838;2023-03-18T09:26:59;-18372.53;;;12.80;100.00
24746;BME280;12845;52.042;6.838;2023-03-18T09:29:25;-18375.84;;;12.93;100.00
24746;BME280;12845;52.042;6.838;2023-03-18T09:31:51;-18376.38;;;12.95;100.00
24746;BME280;12845;52.042;6.838;2023-03-18T09:34:16;-18376.09;;;12.94;100.00
24746;BME280;12845;52.042;6.838;2023-03-18T09:36:42;-18378.44;;;13.02;100.00
24746;BME280;12845;52.042;6.838;2023-03-18T09:39:15;-18383.22;;;13.20;100.00
24746;BME280;12845;52.042;6.838;2023-03-18T09:41:58;-18386.81;;;13.34;100.00
24746;BME280;12845;52.042;6.838;2023-03-18T09:44:34;-18388.19;;;13.39;100.00
24746;BME280;12845;52.042;6.838;2023-03-18T09:52:43;-18390.91;;;13.49;100.00
24746;BME280;12845;52.042;6.838;2023-03-18T09:55:22;-18393.09;;;13.57;100.00
24746;BME280;12845;52.042;6.838;2023-03-18T09:57:51;-18394.47;;;13.62;100.00
24746;BME280;12845;52.042;6.838;2023-03-18T10:00:31;-18395.84;;;13.67;100.00
24746;BME280;12845;52.042;6.838;2023-03-18T10:03:03;-18393.25;;;13.58;100.00
24746;BME280;12845;52.042;6.838;2023-03-18T10:05:46;-18393.09;;;13.57;100.00
24746;BME280;12845;52.042;6.838;2023-03-18T10:11:19;-18395.31;;;13.65;100.00
24746;BME280;12845;52.042;6.838;2023-03-18T10:13:55;-18398.03;;;13.75;100.00
24746;BME280;12845;52.042;6.838;2023-03-18T10:16:26;-18402.84;;;13.93;100.00
24746;BME280;12845;52.042;6.838;2023-03-18T10:18:52;-18406.66;;;14.08;100.00
24746;BME280;12845;52.042;6.838;2023-03-18T10:27:17;-18406.66;;;14.08;100.00
24746;BME280;12845;52.042;6.838;2023-03-18T10:29:48;-18408.72;;;14.15;100.00
24746;BME280;12845;52.042;6.838;2023-03-18T10:40:19;-18417.06;;;14.47;100.00
24746;BME280;12845;52.042;6.838;2023-03-18T10:42:47;-18419.69;;;14.56;100.00
24746;BME280;12845;52.042;6.838;2023-03-18T10:45:23;-18421.31;;;14.62;100.00
24746;BME280;12845;52.042;6.838;2023-03-18T10:47:55;-18417.50;;;14.48;100.00
24746;BME280;12845;52.042;6.838;2023-03-18T10:50:31;-18419.00;;;14.54;100.00
24746;BME280;12845;52.042;6.838;2023-03-18T10:53:26;-18421.19;;;14.62;100.00
24746;BME280;12845;52.042;6.838;2023-03-18T10:56:12;-18418.16;;;14.51;100.00
24746;BME280;12845;52.042;6.838;2023-03-18T10:58:40;-18417.91;;;14.50;100.00
24746;BME280;12845;52.042;6.838;2023-03-18T11:01:08;-18416.94;;;14.46;100.00
24746;BME280;12845;52.042;6.838;2023-03-18T11:03:37;-18416.38;;;14.44;100.00
24746;BME280;12845;52.042;6.838;2023-03-18T11:06:09;-18416.13;;;14.43;100.00
24746;BME280;12845;52.042;6.838;2023-03-18T11:08:39;-18416.53;;;14.44;100.00
24746;BME280;12845;52.042;6.838;2023-03-18T11:11:30;-18419.53;;;14.56;100.00
24746;BME280;12845;52.042;6.838;2023-03-18T11:14:01;-18419.13;;;14.54;100.00
24746;BME280;12845;52.042;6.838;2023-03-18T11:16:28;-18419.97;;;14.57;100.00
24746;BME280;12845;52.042;6.838;2023-03-18T11:18:55;-18419.13;;;14.54;100.00
24746;BME280;12845;52.042;6.838;2023-03-18T11:21:22;-18415.56;;;14.41;100.00
24746;BME280;12845;52.042;6.838;2023-03-18T11:23:52;-18418.03;;;14.50;100.00
24746;BME280;12845;52.042;6.838;2023-03-18T11:26:51;-18421.19;;;14.62;100.00
24746;BME280;12845;52.042;6.838;2023-03-18T11:29:21;-18421.06;;;14.61;100.00
24746;BME280;12845;52.042;6.838;2023-03-18T11:31:51;-18426.53;;;14.82;100.00
24746;BME280;12845;52.042;6.838;2023-03-18T11:34:20;-18429.00;;;14.91;100.00
24746;BME280;12845;52.042;6.838;2023-03-18T11:36:56;-18431.44;;;15.00;100.00
24746;BME280;12845;52.042;6.838;2023-03-18T11:39:28;-18433.09;;;15.06;100.00
24746;BME280;12845;52.042;6.838;2023-03-18T11:41:56;-18434.19;;;15.10;100.00
24746;BME280;12845;52.042;6.838;2023-03-18T11:44:32;-18441.31;;;15.37;100.00
24746;BME280;12845;52.042;6.838;2023-03-18T11:47:12;-18446.63;;;15.57;100.00
24746;BME280;12845;52.042;6.838;2023-03-18T11:49:39;-18449.22;;;15.67;100.00
24746;BME280;12845;52.042;6.838;2023-03-18T11:55:25;-18457.72;;;15.98;100.00
24746;BME280;12845;52.042;6.838;2023-03-18T11:58:21;-18459.34;;;16.05;100.00
24746;BME280;12845;52.042;6.838;2023-03-18T12:00:52;-18457.03;;;15.96;100.00
24746;BME280;12845;52.042;6.838;2023-03-18T12:03:37;-18456.91;;;15.95;100.00
24746;BME280;12845;52.042;6.838;2023-03-18T12:06:15;-18456.91;;;15.95;100.00
24746;BME280;12845;52.042;6.838;2023-03-18T12:09:05;-18461.13;;;16.11;100.00
24746;BME280;12845;52.042;6.838;2023-03-18T12:14:42;-18459.34;;;16.05;100.00
24746;BME280;12845;52.042;6.838;2023-03-18T12:20:06;-18461.81;;;16.14;100.00
24746;BME280;12845;52.042;6.838;2023-03-18T12:25:40;-18464.56;;;16.24;100.00
24746;BME280;12845;52.042;6.838;2023-03-18T12:28:13;-18464.28;;;16.23;100.00
24746;BME280;12845;52.042;6.838;2023-03-18T12:36:34;-18479.72;;;16.81;100.00
24746;BME280;12845;52.042;6.838;2023-03-18T12:47:10;-18484.78;;;17.00;100.00
24746;BME280;12845;52.042;6.838;2023-03-18T12:49:52;-18491.19;;;17.24;100.00
24746;BME280;12845;52.042;6.838;2023-03-18T12:55:12;-18495.41;;;17.40;100.00
24746;BME280;12845;52.042;6.838;2023-03-18T12:57:47;-18498.03;;;17.49;100.00
24746;BME280;12845;52.042;6.838;2023-03-18T13:00:20;-18501.56;;;17.63;100.00
24746;BME280;12845;52.042;6.838;2023-03-18T13:08:05;-18490.38;;;17.21;100.00
24746;BME280;12845;52.042;6.838;2023-03-18T13:10:41;-18494.06;;;17.34;100.00
24746;BME280;12845;52.042;6.838;2023-03-18T13:13:10;-18499.38;;;17.54;100.00
24746;BME280;12845;52.042;6.838;2023-03-18T13:15:41;-18507.03;;;17.83;100.00
24746;BME280;12845;52.042;6.838;2023-03-18T13:18:18;-18511.53;;;18.00;100.00
24746;BME280;12845;52.042;6.838;2023-03-18T13:20:45;-18508.81;;;17.90;100.00
24746;BME280;12845;52.042;6.838;2023-03-18T13:26:40;-18500.75;;;17.59;100.00
24746;BME280;12845;52.042;6.838;2023-03-18T13:29:13;-18498.03;;;17.49;100.00
24746;BME280;12845;52.042;6.838;2023-03-18T13:32:00;-18495.41;;;17.40;100.00
24746;BME280;12845;52.042;6.838;2023-03-18T13:42:57;-18504.84;;;17.75;100.00
24746;BME280;12845;52.042;6.838;2023-03-18T13:45:40;-18505.13;;;17.76;100.00
24746;BME280;12845;52.042;6.838;2023-03-18T13:48:10;-18504.44;;;17.73;100.00
24746;BME280;12845;52.042;6.838;2023-03-18T13:50:38;-18504.44;;;17.73;100.00
24746;BME280;12845;52.042;6.838;2023-03-18T13:53:16;-18500.34;;;17.58;100.00
24746;BME280;12845;52.042;6.838;2023-03-18T13:56:01;-18498.16;;;17.50;100.00
24746;BME280;12845;52.042;6.838;2023-03-18T13:58:35;-18496.50;;;17.44;100.00
24746;BME280;12845;52.042;6.838;2023-03-18T14:14:03;-18488.31;;;17.13;100.00